createdAt,value
2022-08-30T00:01:03.020Z,17.33
2022-08-30T00:03:30.487Z,17.20
2022-08-30T00:05:56.934Z,17.27
2022-08-30T00:08:23.255Z,17.25
2022-08-30T00:10:51.180Z,17.21
2022-08-30T00:13:17.642Z,17.22
2022-08-30T00:15:44.077Z,16.82
2022-08-30T00:18:10.453Z,16.66
2022-08-30T00:20:36.743Z,16.70
2022-08-30T00:23:03.036Z,16.78
2022-08-30T00:25:29.344Z,16.87
2022-08-30T00:27:55.652Z,16.87
2022-08-30T00:30:21.963Z,16.90
2022-08-30T00:32:48.255Z,16.90
2022-08-30T00:35:14.563Z,16.88
2022-08-30T00:37:40.861Z,16.87
2022-08-30T00:40:07.222Z,16.82
2022-08-30T00:42:33.755Z,16.88
2022-08-30T00:45:00.121Z,16.81
2022-08-30T00:47:26.431Z,16.77
2022-08-30T00:49:54.164Z,16.66
2022-08-30T00:52:20.455Z,16.61
2022-08-30T00:54:46.819Z,16.61
2022-08-30T00:57:13.106Z,16.57
2022-08-30T00:59:39.437Z,16.53
2022-08-30T01:02:05.757Z,16.56
2022-08-30T01:04:32.314Z,16.60
2022-08-30T01:06:59.091Z,16.57
2022-08-30T01:09:25.440Z,16.52
2022-08-30T01:11:51.903Z,16.50
2022-08-30T01:14:18.203Z,16.49
2022-08-30T01:16:44.510Z,16.54
2022-08-30T01:19:10.803Z,16.55
2022-08-30T01:21:39.076Z,16.56
2022-08-30T01:24:05.376Z,16.55
2022-08-30T01:26:31.668Z,16.43
2022-08-30T01:28:57.985Z,16.35
2022-08-30T01:31:24.361Z,16.39
2022-08-30T01:33:51.057Z,16.35
2022-08-30T01:36:17.436Z,16.25
2022-08-30T01:38:43.755Z,16.20
2022-08-30T01:41:10.104Z,16.26
2022-08-30T01:43:36.750Z,16.25
2022-08-30T01:46:04.073Z,16.18
2022-08-30T01:48:31.143Z,16.27
2022-08-30T01:50:57.680Z,16.27
2022-08-30T01:53:23.981Z,16.20
2022-08-30T01:55:50.292Z,16.17
2022-08-30T01:58:16.590Z,15.81
2022-08-30T02:00:42.887Z,15.80
2022-08-30T02:03:09.184Z,15.92
2022-08-30T02:05:35.503Z,15.85
2022-08-30T02:08:01.811Z,15.83
2022-08-30T02:10:28.604Z,15.90
2022-08-30T02:12:54.917Z,15.88
2022-08-30T02:15:21.211Z,15.86
2022-08-30T02:17:47.567Z,15.85
2022-08-30T02:20:13.859Z,15.90
2022-08-30T02:22:40.225Z,15.81
2022-08-30T02:25:20.891Z,15.85
2022-08-30T02:27:47.680Z,15.64
2022-08-30T02:30:13.968Z,15.72
2022-08-30T02:32:41.428Z,15.56
2022-08-30T02:35:07.736Z,15.68
2022-08-30T02:37:34.032Z,15.73
2022-08-30T02:40:00.410Z,15.77
2022-08-30T02:42:26.750Z,15.76
2022-08-30T02:44:53.068Z,15.76
2022-08-30T02:47:19.386Z,15.68
2022-08-30T02:49:45.675Z,15.62
2022-08-30T02:52:11.968Z,15.60
2022-08-30T02:54:38.269Z,15.62
2022-08-30T02:57:06.275Z,15.62
2022-08-30T02:59:32.529Z,15.64
2022-08-30T03:01:58.851Z,15.53
2022-08-30T03:04:26.870Z,15.57
2022-08-30T03:06:53.407Z,15.50
2022-08-30T03:09:19.725Z,15.54
2022-08-30T03:11:46.031Z,15.53
2022-08-30T03:14:12.361Z,15.49
2022-08-30T03:16:39.536Z,15.51
2022-08-30T03:19:05.974Z,15.55
2022-08-30T03:21:32.282Z,15.52
2022-08-30T03:23:58.585Z,15.49
2022-08-30T03:26:24.887Z,15.48
2022-08-30T03:28:51.186Z,15.44
2022-08-30T03:31:17.523Z,15.43
2022-08-30T03:33:43.878Z,15.44
2022-08-30T03:36:10.192Z,15.45
2022-08-30T03:38:36.476Z,15.43
2022-08-30T03:41:02.776Z,15.46
2022-08-30T03:43:30.278Z,15.43
2022-08-30T03:45:56.999Z,15.42
2022-08-30T03:48:23.351Z,15.35
2022-08-30T03:50:49.695Z,15.37
2022-08-30T03:53:16.116Z,15.35
2022-08-30T03:55:42.567Z,15.30
2022-08-30T03:58:08.887Z,15.32
2022-08-30T04:00:35.262Z,15.33
2022-08-30T04:03:01.666Z,15.21
2022-08-30T04:05:27.961Z,15.25
2022-08-30T04:07:54.260Z,15.27
2022-08-30T04:10:23.383Z,15.30
2022-08-30T04:12:49.970Z,15.32
2022-08-30T04:15:16.364Z,15.27
2022-08-30T04:17:42.651Z,15.17
2022-08-30T04:20:08.975Z,15.21
2022-08-30T04:22:36.798Z,15.22
2022-08-30T04:25:03.141Z,15.16
2022-08-30T04:27:29.445Z,14.96
2022-08-30T04:29:56.264Z,15.09
2022-08-30T04:32:22.712Z,15.10
2022-08-30T04:34:52.238Z,15.13
2022-08-30T04:37:18.548Z,15.15
2022-08-30T04:39:46.805Z,15.19
2022-08-30T04:42:13.146Z,15.21
2022-08-30T04:44:39.455Z,15.13
2022-08-30T04:47:05.768Z,15.19
2022-08-30T04:49:35.069Z,15.20
2022-08-30T04:52:01.376Z,15.27
2022-08-30T04:54:27.679Z,15.29
2022-08-30T04:56:53.969Z,15.31
2022-08-30T04:59:20.295Z,15.34
2022-08-30T05:01:46.723Z,15.16
2022-08-30T05:04:13.155Z,15.18
2022-08-30T05:06:39.460Z,15.18
2022-08-30T05:09:05.789Z,15.21
2022-08-30T05:11:32.178Z,15.30
2022-08-30T05:13:58.475Z,15.34
2022-08-30T05:16:24.807Z,15.36
2022-08-30T05:18:51.729Z,15.28
2022-08-30T05:21:18.034Z,15.22
2022-08-30T05:23:44.338Z,15.37
2022-08-30T05:26:10.672Z,15.42
2022-08-30T05:28:36.964Z,15.50
2022-08-30T05:31:03.417Z,15.55
2022-08-30T05:33:29.933Z,15.52
2022-08-30T05:35:56.230Z,15.60
2022-08-30T05:38:22.528Z,15.69
2022-08-30T05:40:50.082Z,15.60
2022-08-30T05:43:16.381Z,15.64
2022-08-30T05:45:42.686Z,15.76
2022-08-30T05:48:09.002Z,15.81
2022-08-30T05:50:40.107Z,15.89
2022-08-30T05:53:06.473Z,15.82
2022-08-30T05:55:32.933Z,16.08
2022-08-30T05:58:00.785Z,15.90
2022-08-30T06:00:27.117Z,16.11
2022-08-30T06:02:53.922Z,16.20
2022-08-30T06:05:20.628Z,16.11
2022-08-30T06:07:47.151Z,16.32
2022-08-30T06:10:13.922Z,16.53
2022-08-30T06:12:43.130Z,16.53
2022-08-30T06:15:09.444Z,16.78
2022-08-30T06:17:35.748Z,16.74
2022-08-30T06:20:02.041Z,16.84
2022-08-30T06:22:28.352Z,16.91
2022-08-30T06:24:57.445Z,17.03
2022-08-30T06:27:24.230Z,16.97
2022-08-30T06:29:50.524Z,17.01
2022-08-30T06:32:16.914Z,17.24
2022-08-30T06:34:43.209Z,17.43
2022-08-30T06:37:09.499Z,17.46
2022-08-30T06:39:35.798Z,17.64
2022-08-30T06:42:02.093Z,17.75
2022-08-30T06:44:28.415Z,17.75
2022-08-30T06:46:56.457Z,17.83
2022-08-30T06:49:22.861Z,17.91
2022-08-30T06:51:49.152Z,17.92
2022-08-30T06:54:15.440Z,18.16
2022-08-30T06:56:48.741Z,18.15
2022-08-30T06:59:24.283Z,18.10
2022-08-30T07:01:50.646Z,18.02
2022-08-30T07:04:17.016Z,18.35
2022-08-30T07:06:43.325Z,18.21
2022-08-30T07:09:09.643Z,18.30
2022-08-30T07:11:36.284Z,18.55
2022-08-30T07:14:02.608Z,18.72
2022-08-30T07:16:28.920Z,18.80
2022-08-30T07:18:55.338Z,18.89
2022-08-30T07:21:21.729Z,19.12
2022-08-30T07:23:53.422Z,19.19
2022-08-30T07:26:20.243Z,19.29
2022-08-30T07:28:46.600Z,19.46
2022-08-30T07:31:13.418Z,19.64
2022-08-30T07:33:40.500Z,19.52
2022-08-30T07:36:07.139Z,19.69
2022-08-30T07:38:33.447Z,19.95
2022-08-30T07:41:01.144Z,19.89
2022-08-30T07:43:27.585Z,19.80
2022-08-30T07:45:53.909Z,20.02
2022-08-30T07:48:20.219Z,20.22
2022-08-30T07:50:46.509Z,20.40
2022-08-30T07:53:12.963Z,20.50
2022-08-30T07:55:39.376Z,20.48
2022-08-30T07:58:05.678Z,20.77
2022-08-30T08:00:31.979Z,20.85
2022-08-30T08:02:58.336Z,20.87
2022-08-30T08:05:25.027Z,21.05
2022-08-30T08:07:51.390Z,20.89
2022-08-30T08:10:18.789Z,20.70
2022-08-30T08:12:45.103Z,20.86
2022-08-30T08:15:11.644Z,21.22
2022-08-30T08:17:37.939Z,21.45
2022-08-30T08:20:04.227Z,21.48
2022-08-30T08:22:30.662Z,21.32
2022-08-30T08:24:57.216Z,21.82
2022-08-30T08:27:24.732Z,21.55
2022-08-30T08:29:51.045Z,21.45
2022-08-30T08:32:17.345Z,21.74
2022-08-30T08:34:43.643Z,22.00
2022-08-30T08:37:09.942Z,22.26
2022-08-30T08:39:37.001Z,21.91
2022-08-30T08:42:04.016Z,21.83
2022-08-30T08:44:34.316Z,21.88
2022-08-30T08:47:01.005Z,22.11
2022-08-30T08:49:29.485Z,22.37
2022-08-30T08:52:14.506Z,22.34
2022-08-30T08:54:40.809Z,22.23
2022-08-30T08:57:07.109Z,22.69
2022-08-30T08:59:33.399Z,22.80
2022-08-30T09:02:00.802Z,22.90
2022-08-30T09:04:27.467Z,23.05
2022-08-30T09:06:53.810Z,22.52
2022-08-30T09:09:20.156Z,23.31
2022-08-30T09:11:46.984Z,23.31
2022-08-30T09:17:02.944Z,23.27
2022-08-30T09:19:30.627Z,23.17
2022-08-30T09:22:00.779Z,22.76
2022-08-30T09:24:27.063Z,22.79
2022-08-30T09:26:53.348Z,23.35
2022-08-30T09:29:19.635Z,23.77
2022-08-30T09:31:46.451Z,23.75
2022-08-30T09:34:12.765Z,23.21
2022-08-30T09:36:39.073Z,23.66
2022-08-30T09:39:05.373Z,24.07
2022-08-30T09:41:31.930Z,24.52
2022-08-30T09:43:58.239Z,24.69
2022-08-30T09:46:24.622Z,24.79
2022-08-30T09:48:50.957Z,24.89
2022-08-30T09:51:17.252Z,24.82
2022-08-30T09:53:55.707Z,24.29
2022-08-30T09:56:29.857Z,24.34
2022-08-30T09:58:56.356Z,24.02
2022-08-30T10:01:22.911Z,23.97
2022-08-30T10:03:49.394Z,24.07
2022-08-30T10:06:16.423Z,24.04
2022-08-30T10:08:42.756Z,24.59
2022-08-30T10:11:10.682Z,24.52
2022-08-30T10:13:36.933Z,24.09
2022-08-30T10:16:03.267Z,24.69
2022-08-30T10:18:29.594Z,24.86
2022-08-30T10:20:55.898Z,24.57
2022-08-30T10:23:22.211Z,24.83
2022-08-30T10:25:49.952Z,24.83
2022-08-30T10:28:16.172Z,25.24
2022-08-30T10:30:42.523Z,25.28
2022-08-30T10:33:09.076Z,25.49
2022-08-30T10:35:39.179Z,25.26
2022-08-30T10:38:05.520Z,25.13
2022-08-30T10:40:50.627Z,25.15
2022-08-30T10:43:17.577Z,24.86
2022-08-30T10:45:44.477Z,24.99
2022-08-30T10:48:10.785Z,24.75
2022-08-30T10:53:24.743Z,23.87
2022-08-30T10:55:51.089Z,23.80
2022-08-30T10:58:18.192Z,23.31
2022-08-30T11:00:44.649Z,23.73
2022-08-30T11:03:10.975Z,24.13
2022-08-30T11:05:37.356Z,23.89
2022-08-30T11:08:08.256Z,24.41
2022-08-30T11:10:47.767Z,25.00
2022-08-30T11:13:16.477Z,25.31
2022-08-30T11:15:42.895Z,25.17
2022-08-30T11:18:09.188Z,24.95
2022-08-30T11:20:36.021Z,25.21
2022-08-30T11:23:02.379Z,25.57
2022-08-30T11:25:28.867Z,25.65
2022-08-30T11:27:58.733Z,25.44
2022-08-30T11:30:26.595Z,25.40
2022-08-30T11:32:53.541Z,25.78
2022-08-30T11:35:20.580Z,25.98
2022-08-30T11:37:48.824Z,25.51
2022-08-30T11:40:17.486Z,25.72
2022-08-30T11:42:48.288Z,25.97
2022-08-30T11:45:15.807Z,25.76
2022-08-30T11:47:43.329Z,25.98
2022-08-30T11:50:12.374Z,25.61
2022-08-30T11:52:39.209Z,25.49
2022-08-30T11:55:06.065Z,25.82
2022-08-30T11:57:33.238Z,25.63
2022-08-30T11:59:59.609Z,25.15
2022-08-30T12:02:25.953Z,24.83
2022-08-30T12:04:56.168Z,24.96
2022-08-30T12:07:22.905Z,25.26
2022-08-30T12:09:49.453Z,24.71
2022-08-30T12:12:15.788Z,24.82
2022-08-30T12:14:42.138Z,25.56
2022-08-30T12:17:27.196Z,25.88
2022-08-30T12:19:53.498Z,25.93
2022-08-30T12:22:19.977Z,25.63
2022-08-30T12:24:46.336Z,24.49
2022-08-30T12:27:12.690Z,24.70
2022-08-30T12:29:41.785Z,25.42
2022-08-30T12:32:08.622Z,25.37
2022-08-30T12:34:34.951Z,25.44
2022-08-30T12:37:02.915Z,25.90
2022-08-30T12:39:30.883Z,25.89
2022-08-30T12:41:57.229Z,25.94
2022-08-30T12:44:23.577Z,25.95
2022-08-30T12:46:49.903Z,25.61
2022-08-30T12:49:16.205Z,25.35
2022-08-30T12:51:42.495Z,25.45
2022-08-30T12:54:08.817Z,24.89
2022-08-30T12:56:50.097Z,24.85
2022-08-30T12:59:16.705Z,25.07
2022-08-30T13:01:44.811Z,24.79
2022-08-30T13:04:14.296Z,24.82
2022-08-30T13:06:42.215Z,24.79
2022-08-30T13:09:08.571Z,24.70
2022-08-30T13:11:34.948Z,24.66
2022-08-30T13:14:01.250Z,24.32
2022-08-30T13:16:29.390Z,24.96
2022-08-30T13:18:56.124Z,25.19
2022-08-30T13:21:22.461Z,24.78
2022-08-30T13:23:48.759Z,25.00
2022-08-30T13:26:15.252Z,25.39
2022-08-30T13:28:49.611Z,24.87
2022-08-30T13:31:16.080Z,24.78
2022-08-30T13:33:45.504Z,25.08
2022-08-30T13:36:11.858Z,25.17
2022-08-30T13:38:38.327Z,25.22
2022-08-30T13:41:04.631Z,25.08
2022-08-30T13:43:31.261Z,24.94
2022-08-30T13:46:17.515Z,25.36
2022-08-30T13:48:43.856Z,24.79
2022-08-30T13:51:10.335Z,24.83
2022-08-30T13:53:53.128Z,25.43
2022-08-30T13:56:19.921Z,25.32
2022-08-30T13:58:47.633Z,24.93
2022-08-30T14:01:14.007Z,24.98
2022-08-30T14:04:13.188Z,25.45
2022-08-30T14:06:33.096Z,24.71
2022-08-30T14:09:03.743Z,25.09
2022-08-30T14:11:30.582Z,24.29
2022-08-30T14:16:43.262Z,24.88
2022-08-30T14:19:09.619Z,24.93
2022-08-30T14:21:35.927Z,24.11
2022-08-30T14:24:04.683Z,24.55
2022-08-30T14:26:32.740Z,24.99
2022-08-30T14:29:02.835Z,24.99
2022-08-30T14:31:30.092Z,24.83
2022-08-30T14:33:59.267Z,25.14
2022-08-30T14:36:25.590Z,25.01
2022-08-30T14:38:51.958Z,25.28
2022-08-30T14:41:18.279Z,25.59
2022-08-30T14:43:44.604Z,25.51
2022-08-30T14:46:11.024Z,25.61
2022-08-30T14:48:37.397Z,25.05
2022-08-30T14:51:04.468Z,25.11
2022-08-30T14:53:30.775Z,25.58
2022-08-30T14:55:57.063Z,25.00
2022-08-30T14:58:23.433Z,25.49
2022-08-30T15:00:49.744Z,25.76
2022-08-30T15:03:16.100Z,26.03
2022-08-30T15:05:42.668Z,26.15
2022-08-30T15:08:10.016Z,26.07
2022-08-30T15:10:36.993Z,25.95
2022-08-30T15:13:04.772Z,25.89
2022-08-30T15:15:31.236Z,25.84
2022-08-30T15:17:57.539Z,25.93
2022-08-30T15:20:23.849Z,25.87
2022-08-30T15:22:50.186Z,25.92
2022-08-30T15:25:18.669Z,26.07
2022-08-30T15:27:49.284Z,25.93
2022-08-30T15:30:15.604Z,25.49
2022-08-30T15:32:45.995Z,25.15
2022-08-30T15:35:12.302Z,25.29
2022-08-30T15:37:38.606Z,25.34
2022-08-30T15:40:04.985Z,25.48
2022-08-30T15:42:31.939Z,25.53
2022-08-30T15:44:59.324Z,24.95
2022-08-30T15:47:26.157Z,25.05
2022-08-30T15:49:52.475Z,25.29
2022-08-30T15:52:18.832Z,25.32
2022-08-30T15:54:49.419Z,25.23
2022-08-30T15:57:16.207Z,24.74
2022-08-30T15:59:43.514Z,25.06
2022-08-30T16:02:09.866Z,24.78
2022-08-30T16:04:37.125Z,24.96
2022-08-30T16:07:03.424Z,25.09
2022-08-30T16:09:32.433Z,24.74
2022-08-30T16:11:59.089Z,24.92
2022-08-30T16:14:25.804Z,25.04
2022-08-30T16:16:52.116Z,24.71
2022-08-30T16:19:18.432Z,24.88
2022-08-30T16:21:44.882Z,24.28
2022-08-30T16:24:13.856Z,24.43
2022-08-30T16:26:40.481Z,24.33
2022-08-30T16:29:07.598Z,24.37
2022-08-30T16:31:35.260Z,24.68
2022-08-30T16:34:02.347Z,24.32
2022-08-30T16:36:30.133Z,24.65
2022-08-30T16:38:58.403Z,24.37
2022-08-30T16:41:24.894Z,23.89
2022-08-30T16:43:53.598Z,24.05
2022-08-30T16:46:22.940Z,24.30
2022-08-30T16:48:53.408Z,24.44
2022-08-30T16:51:19.769Z,24.39
2022-08-30T16:53:46.390Z,24.48
2022-08-30T16:56:12.705Z,24.55
2022-08-30T16:58:39.081Z,24.50
2022-08-30T17:01:05.582Z,23.82
2022-08-30T17:03:31.933Z,24.26
2022-08-30T17:05:58.237Z,24.24
2022-08-30T17:08:24.823Z,24.41
2022-08-30T17:10:51.119Z,24.41
2022-08-30T17:13:17.904Z,24.29
2022-08-30T17:15:45.819Z,24.22
2022-08-30T17:18:12.308Z,24.24
2022-08-30T17:20:40.494Z,24.23
2022-08-30T17:23:10.785Z,24.08
2022-08-30T17:25:37.111Z,24.11
2022-08-30T17:28:03.674Z,24.16
2022-08-30T17:30:31.339Z,24.15
2022-08-30T17:32:57.644Z,24.14
2022-08-30T17:35:24.306Z,24.08
2022-08-30T17:37:51.393Z,24.06
2022-08-30T17:40:17.734Z,23.98
2022-08-30T17:42:45.039Z,23.94
2022-08-30T17:45:11.334Z,23.84
2022-08-30T17:47:37.654Z,23.82
2022-08-30T17:50:05.103Z,23.78
2022-08-30T17:52:32.044Z,23.64
2022-08-30T17:54:59.703Z,23.58
2022-08-30T17:57:26.070Z,23.56
2022-08-30T17:59:52.381Z,23.44
2022-08-30T18:02:21.475Z,23.44
2022-08-30T18:04:57.775Z,23.34
2022-08-30T18:07:25.567Z,23.27
2022-08-30T18:09:53.269Z,23.19
2022-08-30T18:12:20.176Z,22.82
2022-08-30T18:14:47.114Z,23.05
2022-08-30T18:17:19.354Z,22.99
2022-08-30T18:19:46.851Z,22.97
2022-08-30T18:22:13.157Z,23.02
2022-08-30T18:24:39.471Z,22.92
2022-08-30T18:27:05.936Z,22.73
2022-08-30T18:29:32.321Z,22.80
2022-08-30T18:31:58.629Z,22.70
2022-08-30T18:34:24.947Z,22.63
2022-08-30T18:36:51.320Z,22.64
2022-08-30T18:39:18.892Z,22.37
2022-08-30T18:41:46.902Z,22.22
2022-08-30T18:44:27.268Z,22.10
2022-08-30T18:46:56.056Z,22.08
2022-08-30T18:49:23.213Z,21.86
2022-08-30T18:51:49.960Z,21.73
2022-08-30T18:54:16.453Z,21.81
2022-08-30T18:56:42.765Z,21.81
2022-08-30T18:59:12.084Z,21.67
2022-08-30T19:01:38.781Z,21.58
2022-08-30T19:04:06.891Z,21.33
2022-08-30T19:06:34.233Z,21.42
2022-08-30T19:09:00.555Z,20.76
2022-08-30T19:11:26.948Z,20.26
2022-08-30T19:13:53.770Z,20.62
2022-08-30T19:16:20.072Z,21.10
2022-08-30T19:18:46.735Z,21.38
2022-08-30T19:21:13.527Z,21.53
2022-08-30T19:23:40.085Z,21.60
2022-08-30T19:26:06.429Z,21.51
2022-08-30T19:28:34.602Z,21.47
2022-08-30T19:31:01.001Z,21.52
2022-08-30T19:33:27.328Z,21.47
2022-08-30T19:35:54.022Z,21.10
2022-08-30T19:38:20.328Z,20.71
2022-08-30T19:40:49.095Z,20.60
2022-08-30T19:43:18.981Z,20.64
2022-08-30T19:45:45.465Z,20.86
2022-08-30T19:48:12.233Z,20.68
2022-08-30T19:50:39.659Z,20.83
2022-08-30T19:53:08.958Z,21.14
2022-08-30T19:55:37.200Z,21.06
2022-08-30T19:58:04.387Z,21.20
2022-08-30T20:00:31.322Z,21.39
2022-08-30T20:02:57.963Z,20.88
2022-08-30T20:05:24.299Z,21.24
2022-08-30T20:07:51.126Z,21.24
2022-08-30T20:10:19.752Z,20.92
2022-08-30T20:12:48.323Z,20.79
2022-08-30T20:15:16.151Z,20.63
2022-08-30T20:18:02.603Z,20.74
2022-08-30T20:20:28.781Z,20.31
2022-08-30T20:22:55.110Z,20.23
2022-08-30T20:25:25.181Z,20.03
2022-08-30T20:27:51.480Z,20.33
2022-08-30T20:30:17.784Z,20.38
2022-08-30T20:32:46.548Z,20.22
2022-08-30T20:35:12.963Z,19.91
2022-08-30T20:37:40.305Z,19.67
2022-08-30T20:40:06.920Z,19.89
2022-08-30T20:42:33.274Z,19.93
2022-08-30T20:45:00.172Z,19.75
2022-08-30T20:47:26.478Z,19.80
2022-08-30T20:49:52.949Z,19.21
2022-08-30T20:52:19.250Z,19.46
2022-08-30T20:54:45.577Z,19.71
2022-08-30T20:57:11.907Z,19.71
2022-08-30T20:59:38.735Z,19.47
2022-08-30T21:02:05.962Z,19.83
2022-08-30T21:04:32.715Z,19.50
2022-08-30T21:06:59.045Z,19.60
2022-08-30T21:09:25.451Z,19.89
2022-08-30T21:11:51.798Z,19.30
2022-08-30T21:14:18.407Z,19.64
2022-08-30T21:16:45.013Z,19.89
2022-08-30T21:19:11.362Z,19.74
2022-08-30T21:21:37.683Z,19.46
2022-08-30T21:24:06.639Z,19.84
2022-08-30T21:26:33.250Z,19.88
2022-08-30T21:28:59.543Z,19.81
2022-08-30T21:31:25.890Z,20.03
2022-08-30T21:33:52.277Z,19.35
2022-08-30T21:36:37.502Z,19.40
2022-08-30T21:39:03.799Z,19.86
2022-08-30T21:41:31.427Z,20.07
2022-08-30T21:43:57.973Z,19.69
2022-08-30T21:46:24.903Z,19.96
2022-08-30T21:48:51.176Z,19.86
2022-08-30T21:51:17.477Z,19.58
2022-08-30T21:53:43.777Z,19.53
2022-08-30T21:56:12.983Z,19.71
2022-08-30T21:58:40.051Z,19.68
2022-08-30T22:01:07.537Z,19.78
2022-08-30T22:03:34.219Z,19.70
2022-08-30T22:06:00.529Z,19.76
2022-08-30T22:08:26.834Z,19.74
2022-08-30T22:10:53.324Z,19.58
2022-08-30T22:13:19.773Z,19.46
2022-08-30T22:15:46.131Z,19.53
2022-08-30T22:18:12.483Z,19.38
2022-08-30T22:20:41.151Z,19.03
2022-08-30T22:23:07.791Z,19.37
2022-08-30T22:25:34.099Z,19.45
2022-08-30T22:28:00.406Z,19.51
2022-08-30T22:30:27.791Z,19.17
2022-08-30T22:32:54.086Z,19.15
2022-08-30T22:35:20.856Z,19.32
2022-08-30T22:37:53.132Z,19.06
2022-08-30T22:40:20.032Z,19.32
2022-08-30T22:42:48.495Z,19.34
2022-08-30T22:45:14.904Z,19.36
2022-08-30T22:47:41.198Z,19.36
2022-08-30T22:50:07.500Z,19.34
2022-08-30T22:52:33.881Z,19.25
2022-08-30T22:55:00.189Z,19.03
2022-08-30T22:57:26.799Z,19.18
2022-08-30T22:59:53.160Z,19.23
2022-08-30T23:02:19.513Z,19.16
2022-08-30T23:04:45.885Z,19.02
2022-08-30T23:07:12.189Z,18.47
2022-08-30T23:09:38.486Z,18.81
2022-08-30T23:12:06.250Z,18.38
2022-08-30T23:14:32.557Z,18.49
2022-08-30T23:16:58.901Z,18.50
2022-08-30T23:19:26.630Z,18.59
2022-08-30T23:21:52.927Z,18.38
2022-08-30T23:24:37.668Z,18.63
2022-08-30T23:27:25.969Z,18.60
2022-08-30T23:30:10.835Z,18.60
2022-08-30T23:32:55.693Z,18.64
2022-08-30T23:35:40.981Z,18.10
2022-08-30T23:38:25.821Z,18.00
2022-08-30T23:41:10.617Z,18.22
2022-08-30T23:43:55.679Z,18.07
2022-08-30T23:46:40.545Z,18.18
2022-08-30T23:49:25.516Z,18.06
2022-08-30T23:52:10.351Z,17.36
2022-08-30T23:54:57.314Z,17.79
2022-08-30T23:57:42.303Z,17.67
